sensor_id;sensor_type;location;lat;lon;timestamp;temperature;humidity
22379;DHT22;11357;49.990;7.370;2023-02-28T00:01:25;2.70;63.50
22379;DHT22;11357;49.990;7.370;2023-02-28T00:03:51;2.60;63.50
22379;DHT22;11357;49.990;7.370;2023-02-28T00:06:16;2.60;63.50
22379;DHT22;11357;49.990;7.370;2023-02-28T00:08:42;2.60;63.50
22379;DHT22;11357;49.990;7.370;2023-02-28T00:11:10;2.60;63.60
22379;DHT22;11357;49.990;7.370;2023-02-28T00:13:39;2.50;63.60
22379;DHT22;11357;49.990;7.370;2023-02-28T00:16:11;2.50;63.70
22379;DHT22;11357;49.990;7.370;2023-02-28T00:18:38;2.50;63.90
22379;DHT22;11357;49.990;7.370;2023-02-28T00:21:05;2.50;63.90
22379;DHT22;11357;49.990;7.370;2023-02-28T00:23:31;2.40;63.90
22379;DHT22;11357;49.990;7.370;2023-02-28T00:25:57;2.40;64.00
22379;DHT22;11357;49.990;7.370;2023-02-28T00:28:23;2.40;64.00
22379;DHT22;11357;49.990;7.370;2023-02-28T00:30:49;2.40;64.10
22379;DHT22;11357;49.990;7.370;2023-02-28T00:33:15;2.40;64.10
22379;DHT22;11357;49.990;7.370;2023-02-28T00:35:41;2.30;64.10
22379;DHT22;11357;49.990;7.370;2023-02-28T00:38:07;2.30;64.20
22379;DHT22;11357;49.990;7.370;2023-02-28T00:40:33;2.30;64.30
22379;DHT22;11357;49.990;7.370;2023-02-28T00:42:58;2.30;64.30
22379;DHT22;11357;49.990;7.370;2023-02-28T00:45:24;2.30;64.30
22379;DHT22;11357;49.990;7.370;2023-02-28T00:47:50;2.30;64.30
22379;DHT22;11357;49.990;7.370;2023-02-28T00:50:17;2.30;64.20
22379;DHT22;11357;49.990;7.370;2023-02-28T00:52:43;2.30;64.20
22379;DHT22;11357;49.990;7.370;2023-02-28T00:55:09;2.30;64.20
22379;DHT22;11357;49.990;7.370;2023-02-28T00:57:35;2.30;64.20
22379;DHT22;11357;49.990;7.370;2023-02-28T01:00:01;2.30;64.20
22379;DHT22;11357;49.990;7.370;2023-02-28T01:02:26;2.30;64.10
22379;DHT22;11357;49.990;7.370;2023-02-28T01:04:52;2.30;64.10
22379;DHT22;11357;49.990;7.370;2023-02-28T01:07:18;2.20;64.00
22379;DHT22;11357;49.990;7.370;2023-02-28T01:09:43;2.20;64.10
22379;DHT22;11357;49.990;7.370;2023-02-28T01:12:09;2.20;64.20
22379;DHT22;11357;49.990;7.370;2023-02-28T01:14:35;2.10;64.10
22379;DHT22;11357;49.990;7.370;2023-02-28T01:17:01;2.10;64.10
22379;DHT22;11357;49.990;7.370;2023-02-28T01:19:27;2.10;64.20
22379;DHT22;11357;49.990;7.370;2023-02-28T01:21:52;2.10;64.30
22379;DHT22;11357;49.990;7.370;2023-02-28T01:24:18;2.00;64.30
22379;DHT22;11357;49.990;7.370;2023-02-28T01:26:44;2.00;64.30
22379;DHT22;11357;49.990;7.370;2023-02-28T01:29:10;2.10;64.40
22379;DHT22;11357;49.990;7.370;2023-02-28T01:31:35;2.10;64.40
22379;DHT22;11357;49.990;7.370;2023-02-28T01:34:01;2.00;64.40
22379;DHT22;11357;49.990;7.370;2023-02-28T01:36:27;2.00;64.40
22379;DHT22;11357;49.990;7.370;2023-02-28T01:38:53;2.00;64.50
22379;DHT22;11357;49.990;7.370;2023-02-28T01:41:31;2.00;64.60
22379;DHT22;11357;49.990;7.370;2023-02-28T01:44:06;1.90;64.70
22379;DHT22;11357;49.990;7.370;2023-02-28T01:46:35;1.90;64.90
22379;DHT22;11357;49.990;7.370;2023-02-28T01:49:12;1.90;65.10
22379;DHT22;11357;49.990;7.370;2023-02-28T01:51:44;1.80;65.40
22379;DHT22;11357;49.990;7.370;2023-02-28T01:54:18;1.80;65.70
22379;DHT22;11357;49.990;7.370;2023-02-28T01:56:59;1.70;66.20
22379;DHT22;11357;49.990;7.370;2023-02-28T01:59:33;1.70;66.50
22379;DHT22;11357;49.990;7.370;2023-02-28T02:02:00;1.70;67.00
22379;DHT22;11357;49.990;7.370;2023-02-28T02:04:32;1.60;67.20
22379;DHT22;11357;49.990;7.370;2023-02-28T02:07:00;1.60;67.60
22379;DHT22;11357;49.990;7.370;2023-02-28T02:09:26;1.60;68.00
22379;DHT22;11357;49.990;7.370;2023-02-28T02:11:55;1.60;68.50
22379;DHT22;11357;49.990;7.370;2023-02-28T02:36:23;1.50;71.40
22379;DHT22;11357;49.990;7.370;2023-02-28T02:44:23;1.40;72.50
22379;DHT22;11357;49.990;7.370;2023-02-28T02:46:52;1.40;72.30
22379;DHT22;11357;49.990;7.370;2023-02-28T02:49:27;1.40;72.40
22379;DHT22;11357;49.990;7.370;2023-02-28T02:51:55;1.40;72.70
22379;DHT22;11357;49.990;7.370;2023-02-28T02:54:26;1.40;73.00
22379;DHT22;11357;49.990;7.370;2023-02-28T02:56:59;1.40;73.30
22379;DHT22;11357;49.990;7.370;2023-02-28T02:59:28;1.30;73.50
22379;DHT22;11357;49.990;7.370;2023-02-28T03:02:00;1.30;73.90
22379;DHT22;11357;49.990;7.370;2023-02-28T03:04:30;1.30;74.30
22379;DHT22;11357;49.990;7.370;2023-02-28T03:06:57;1.30;74.30
22379;DHT22;11357;49.990;7.370;2023-02-28T03:09:24;1.30;74.30
22379;DHT22;11357;49.990;7.370;2023-02-28T03:11:55;1.30;74.60
22379;DHT22;11357;49.990;7.370;2023-02-28T03:14:40;1.30;74.80
22379;DHT22;11357;49.990;7.370;2023-02-28T03:23:17;1.30;75.40
22379;DHT22;11357;49.990;7.370;2023-02-28T03:26:04;1.20;75.50
22379;DHT22;11357;49.990;7.370;2023-02-28T03:31:15;1.20;76.00
22379;DHT22;11357;49.990;7.370;2023-02-28T03:33:49;1.20;76.10
22379;DHT22;11357;49.990;7.370;2023-02-28T03:36:23;1.20;76.10
22379;DHT22;11357;49.990;7.370;2023-02-28T03:39:03;1.20;76.20
22379;DHT22;11357;49.990;7.370;2023-02-28T03:41:40;1.20;76.30
22379;DHT22;11357;49.990;7.370;2023-02-28T03:44:18;1.20;76.40
22379;DHT22;11357;49.990;7.370;2023-02-28T03:46:58;1.20;76.40
22379;DHT22;11357;49.990;7.370;2023-02-28T03:49:32;1.20;76.40
22379;DHT22;11357;49.990;7.370;2023-02-28T03:52:01;1.20;76.40
22379;DHT22;11357;49.990;7.370;2023-02-28T03:54:35;1.20;76.40
22379;DHT22;11357;49.990;7.370;2023-02-28T03:57:18;1.20;77.20
22379;DHT22;11357;49.990;7.370;2023-02-28T03:59:52;1.20;76.60
22379;DHT22;11357;49.990;7.370;2023-02-28T04:02:21;1.10;76.70
22379;DHT22;11357;49.990;7.370;2023-02-28T04:04:46;1.10;76.90
22379;DHT22;11357;49.990;7.370;2023-02-28T04:07:14;1.20;77.10
22379;DHT22;11357;49.990;7.370;2023-02-28T04:09:40;1.20;77.10
22379;DHT22;11357;49.990;7.370;2023-02-28T04:12:06;1.20;77.20
22379;DHT22;11357;49.990;7.370;2023-02-28T04:14:32;1.10;77.10
22379;DHT22;11357;49.990;7.370;2023-02-28T04:16:57;1.10;77.20
22379;DHT22;11357;49.990;7.370;2023-02-28T04:19:23;1.10;77.10
22379;DHT22;11357;49.990;7.370;2023-02-28T04:21:51;1.10;77.30
22379;DHT22;11357;49.990;7.370;2023-02-28T04:24:22;1.10;77.30
22379;DHT22;11357;49.990;7.370;2023-02-28T04:26:50;1.10;77.50
22379;DHT22;11357;49.990;7.370;2023-02-28T04:29:25;1.10;77.60
22379;DHT22;11357;49.990;7.370;2023-02-28T04:31:51;1.10;77.70
22379;DHT22;11357;49.990;7.370;2023-02-28T04:34:18;1.10;77.60
22379;DHT22;11357;49.990;7.370;2023-02-28T04:36:44;1.10;77.50
22379;DHT22;11357;49.990;7.370;2023-02-28T04:39:11;1.10;77.40
22379;DHT22;11357;49.990;7.370;2023-02-28T04:41:37;1.10;77.30
22379;DHT22;11357;49.990;7.370;2023-02-28T04:44:03;1.10;77.40
22379;DHT22;11357;49.990;7.370;2023-02-28T04:46:29;1.00;77.40
22379;DHT22;11357;49.990;7.370;2023-02-28T04:48:56;1.00;77.50
22379;DHT22;11357;49.990;7.370;2023-02-28T04:51:21;1.00;77.50
22379;DHT22;11357;49.990;7.370;2023-02-28T04:53:48;0.90;77.60
22379;DHT22;11357;49.990;7.370;2023-02-28T04:56:15;0.90;77.70
22379;DHT22;11357;49.990;7.370;2023-02-28T04:58:41;0.90;77.70
22379;DHT22;11357;49.990;7.370;2023-02-28T05:01:23;0.90;77.80
22379;DHT22;11357;49.990;7.370;2023-02-28T05:03:49;0.80;77.90
22379;DHT22;11357;49.990;7.370;2023-02-28T05:06:16;0.80;77.90
22379;DHT22;11357;49.990;7.370;2023-02-28T05:08:42;0.80;78.00
22379;DHT22;11357;49.990;7.370;2023-02-28T05:11:17;0.80;78.10
22379;DHT22;11357;49.990;7.370;2023-02-28T05:13:43;0.80;78.20
22379;DHT22;11357;49.990;7.370;2023-02-28T05:16:09;0.80;78.10
22379;DHT22;11357;49.990;7.370;2023-02-28T05:18:35;0.70;78.10
22379;DHT22;11357;49.990;7.370;2023-02-28T05:21:01;0.80;78.10
22379;DHT22;11357;49.990;7.370;2023-02-28T05:23:27;0.70;78.00
22379;DHT22;11357;49.990;7.370;2023-02-28T05:25:53;0.70;78.00
22379;DHT22;11357;49.990;7.370;2023-02-28T05:28:19;0.70;78.10
22379;DHT22;11357;49.990;7.370;2023-02-28T05:30:46;0.70;78.10
22379;DHT22;11357;49.990;7.370;2023-02-28T05:33:12;0.70;78.00
22379;DHT22;11357;49.990;7.370;2023-02-28T05:35:41;0.70;78.00
22379;DHT22;11357;49.990;7.370;2023-02-28T05:38:08;0.60;77.90
22379;DHT22;11357;49.990;7.370;2023-02-28T05:40:34;0.70;77.90
22379;DHT22;11357;49.990;7.370;2023-02-28T05:43:00;0.70;77.90
22379;DHT22;11357;49.990;7.370;2023-02-28T05:45:25;0.70;77.90
22379;DHT22;11357;49.990;7.370;2023-02-28T05:47:55;0.60;77.70
22379;DHT22;11357;49.990;7.370;2023-02-28T05:50:20;0.60;77.70
22379;DHT22;11357;49.990;7.370;2023-02-28T05:52:50;0.60;77.70
22379;DHT22;11357;49.990;7.370;2023-02-28T05:55:16;0.60;77.80
22379;DHT22;11357;49.990;7.370;2023-02-28T05:57:41;0.60;77.70
22379;DHT22;11357;49.990;7.370;2023-02-28T06:00:09;0.60;77.60
22379;DHT22;11357;49.990;7.370;2023-02-28T06:02:35;0.60;77.60
22379;DHT22;11357;49.990;7.370;2023-02-28T06:05:00;0.50;77.60
22379;DHT22;11357;49.990;7.370;2023-02-28T06:07:27;0.50;77.60
22379;DHT22;11357;49.990;7.370;2023-02-28T06:09:52;0.50;77.70
22379;DHT22;11357;49.990;7.370;2023-02-28T06:12:18;0.50;77.70
22379;DHT22;11357;49.990;7.370;2023-02-28T06:14:43;0.50;77.80
22379;DHT22;11357;49.990;7.370;2023-02-28T06:17:10;0.50;77.80
22379;DHT22;11357;49.990;7.370;2023-02-28T06:19:37;0.50;77.90
22379;DHT22;11357;49.990;7.370;2023-02-28T06:22:04;0.50;78.00
22379;DHT22;11357;49.990;7.370;2023-02-28T06:24:29;0.50;78.10
22379;DHT22;11357;49.990;7.370;2023-02-28T06:26:57;0.50;78.10
22379;DHT22;11357;49.990;7.370;2023-02-28T06:29:24;0.50;78.20
22379;DHT22;11357;49.990;7.370;2023-02-28T06:31:50;0.50;78.20
22379;DHT22;11357;49.990;7.370;2023-02-28T06:34:16;0.50;78.20
22379;DHT22;11357;49.990;7.370;2023-02-28T06:36:43;0.50;78.20
22379;DHT22;11357;49.990;7.370;2023-02-28T06:39:09;0.50;78.20
22379;DHT22;11357;49.990;7.370;2023-02-28T06:41:35;0.50;78.30
22379;DHT22;11357;49.990;7.370;2023-02-28T06:44:04;0.50;78.30
22379;DHT22;11357;49.990;7.370;2023-02-28T06:46:31;0.40;78.20
22379;DHT22;11357;49.990;7.370;2023-02-28T06:48:57;0.50;78.20
22379;DHT22;11357;49.990;7.370;2023-02-28T06:51:22;0.50;78.20
22379;DHT22;11357;49.990;7.370;2023-02-28T06:53:49;0.60;78.30
22379;DHT22;11357;49.990;7.370;2023-02-28T06:56:16;0.60;78.20
22379;DHT22;11357;49.990;7.370;2023-02-28T06:58:46;0.60;78.20
22379;DHT22;11357;49.990;7.370;2023-02-28T07:01:13;0.50;78.10
22379;DHT22;11357;49.990;7.370;2023-02-28T07:03:39;0.60;78.20
22379;DHT22;11357;49.990;7.370;2023-02-28T07:06:06;0.60;78.10
22379;DHT22;11357;49.990;7.370;2023-02-28T07:08:32;0.70;78.10
22379;DHT22;11357;49.990;7.370;2023-02-28T07:10:58;0.80;78.00
22379;DHT22;11357;49.990;7.370;2023-02-28T07:13:24;0.90;77.90
22379;DHT22;11357;49.990;7.370;2023-02-28T07:15:58;0.90;77.80
22379;DHT22;11357;49.990;7.370;2023-02-28T07:18:24;0.90;77.80
22379;DHT22;11357;49.990;7.370;2023-02-28T07:20:50;1.00;77.80
22379;DHT22;11357;49.990;7.370;2023-02-28T07:23:16;1.00;77.70
22379;DHT22;11357;49.990;7.370;2023-02-28T07:25:41;1.00;77.70
22379;DHT22;11357;49.990;7.370;2023-02-28T07:28:07;1.00;77.70
22379;DHT22;11357;49.990;7.370;2023-02-28T07:30:33;1.00;77.70
22379;DHT22;11357;49.990;7.370;2023-02-28T07:32:59;1.00;77.70
22379;DHT22;11357;49.990;7.370;2023-02-28T07:35:24;1.00;77.70
22379;DHT22;11357;49.990;7.370;2023-02-28T07:37:50;1.00;77.70
22379;DHT22;11357;49.990;7.370;2023-02-28T07:40:16;1.10;77.70
22379;DHT22;11357;49.990;7.370;2023-02-28T07:42:43;1.10;77.50
22379;DHT22;11357;49.990;7.370;2023-02-28T07:45:10;1.20;77.40
22379;DHT22;11357;49.990;7.370;2023-02-28T07:47:38;1.30;77.20
22379;DHT22;11357;49.990;7.370;2023-02-28T07:50:05;1.30;77.00
22379;DHT22;11357;49.990;7.370;2023-02-28T07:52:31;1.40;77.00
22379;DHT22;11357;49.990;7.370;2023-02-28T07:54:57;1.40;76.90
22379;DHT22;11357;49.990;7.370;2023-02-28T07:57:23;1.40;76.90
22379;DHT22;11357;49.990;7.370;2023-02-28T07:59:49;1.40;76.70
22379;DHT22;11357;49.990;7.370;2023-02-28T08:02:16;1.50;76.60
22379;DHT22;11357;49.990;7.370;2023-02-28T08:04:42;1.50;76.50
22379;DHT22;11357;49.990;7.370;2023-02-28T08:07:08;1.60;76.40
22379;DHT22;11357;49.990;7.370;2023-02-28T08:09:39;1.70;76.30
22379;DHT22;11357;49.990;7.370;2023-02-28T08:12:05;1.80;76.20
22379;DHT22;11357;49.990;7.370;2023-02-28T08:14:31;1.90;75.90
22379;DHT22;11357;49.990;7.370;2023-02-28T08:16:57;2.00;75.70
22379;DHT22;11357;49.990;7.370;2023-02-28T08:19:22;2.10;75.50
22379;DHT22;11357;49.990;7.370;2023-02-28T08:21:48;2.10;75.30
22379;DHT22;11357;49.990;7.370;2023-02-28T08:24:13;2.30;75.10
22379;DHT22;11357;49.990;7.370;2023-02-28T08:26:39;2.50;74.90
22379;DHT22;11357;49.990;7.370;2023-02-28T08:29:05;2.70;74.60
22379;DHT22;11357;49.990;7.370;2023-02-28T08:31:30;2.80;74.20
22379;DHT22;11357;49.990;7.370;2023-02-28T08:33:56;3.10;73.80
22379;DHT22;11357;49.990;7.370;2023-02-28T08:36:25;3.30;73.40
22379;DHT22;11357;49.990;7.370;2023-02-28T08:38:50;3.40;72.90
22379;DHT22;11357;49.990;7.370;2023-02-28T08:41:16;3.50;72.60
22379;DHT22;11357;49.990;7.370;2023-02-28T08:43:42;3.60;72.40
22379;DHT22;11357;49.990;7.370;2023-02-28T08:46:10;3.60;71.70
22379;DHT22;11357;49.990;7.370;2023-02-28T08:48:36;3.70;71.40
22379;DHT22;11357;49.990;7.370;2023-02-28T08:51:08;3.80;71.30
22379;DHT22;11357;49.990;7.370;2023-02-28T08:53:36;3.90;70.60
22379;DHT22;11357;49.990;7.370;2023-02-28T08:56:10;4.00;70.00
22379;DHT22;11357;49.990;7.370;2023-02-28T08:58:37;4.00;69.40
22379;DHT22;11357;49.990;7.370;2023-02-28T09:01:14;3.90;68.50
22379;DHT22;11357;49.990;7.370;2023-02-28T09:03:40;4.00;67.90
22379;DHT22;11357;49.990;7.370;2023-02-28T09:06:12;4.20;67.60
22379;DHT22;11357;49.990;7.370;2023-02-28T09:08:39;4.30;67.30
22379;DHT22;11357;49.990;7.370;2023-02-28T09:11:05;4.40;66.90
22379;DHT22;11357;49.990;7.370;2023-02-28T09:13:31;4.40;66.10
22379;DHT22;11357;49.990;7.370;2023-02-28T09:16:01;4.50;65.80
22379;DHT22;11357;49.990;7.370;2023-02-28T09:18:28;4.70;65.60
22379;DHT22;11357;49.990;7.370;2023-02-28T09:20:54;4.70;65.00
22379;DHT22;11357;49.990;7.370;2023-02-28T09:23:19;4.80;65.00
22379;DHT22;11357;49.990;7.370;2023-02-28T09:25:50;4.90;64.00
22379;DHT22;11357;49.990;7.370;2023-02-28T09:28:16;5.10;64.10
22379;DHT22;11357;49.990;7.370;2023-02-28T09:30:45;5.30;63.60
22379;DHT22;11357;49.990;7.370;2023-02-28T09:33:11;5.30;62.50
22379;DHT22;11357;49.990;7.370;2023-02-28T09:35:37;5.50;62.20
22379;DHT22;11357;49.990;7.370;2023-02-28T09:38:03;5.50;61.90
22379;DHT22;11357;49.990;7.370;2023-02-28T09:40:29;5.80;61.50
22379;DHT22;11357;49.990;7.370;2023-02-28T09:42:57;6.10;60.70
22379;DHT22;11357;49.990;7.370;2023-02-28T09:45:24;6.40;60.00
22379;DHT22;11357;49.990;7.370;2023-02-28T09:47:54;6.40;58.90
22379;DHT22;11357;49.990;7.370;2023-02-28T09:50:40;6.30;58.10
22379;DHT22;11357;49.990;7.370;2023-02-28T09:53:28;6.30;58.20
22379;DHT22;11357;49.990;7.370;2023-02-28T09:56:42;6.30;57.50
22379;DHT22;11357;49.990;7.370;2023-02-28T09:58:55;6.30;57.50
22379;DHT22;11357;49.990;7.370;2023-02-28T10:01:38;6.10;56.90
22379;DHT22;11357;49.990;7.370;2023-02-28T10:04:33;6.00;57.20
22379;DHT22;11357;49.990;7.370;2023-02-28T10:06:51;6.00;57.60
22379;DHT22;11357;49.990;7.370;2023-02-28T10:09:30;6.00;57.50
22379;DHT22;11357;49.990;7.370;2023-02-28T10:12:03;6.00;57.60
22379;DHT22;11357;49.990;7.370;2023-02-28T10:14:34;6.30;57.50
22379;DHT22;11357;49.990;7.370;2023-02-28T10:17:23;6.40;56.80
22379;DHT22;11357;49.990;7.370;2023-02-28T10:25:23;6.60;55.20
22379;DHT22;11357;49.990;7.370;2023-02-28T10:27:52;6.70;55.00
22379;DHT22;11357;49.990;7.370;2023-02-28T10:30:19;6.90;55.10
22379;DHT22;11357;49.990;7.370;2023-02-28T10:32:50;7.20;55.20
22379;DHT22;11357;49.990;7.370;2023-02-28T10:35:24;7.50;54.30
22379;DHT22;11357;49.990;7.370;2023-02-28T10:37:53;8.00;53.10
22379;DHT22;11357;49.990;7.370;2023-02-28T10:45:26;8.40;51.10
22379;DHT22;11357;49.990;7.370;2023-02-28T10:47:56;8.40;50.00
22379;DHT22;11357;49.990;7.370;2023-02-28T10:53:31;8.40;50.10
22379;DHT22;11357;49.990;7.370;2023-02-28T10:58:57;8.30;49.40
22379;DHT22;11357;49.990;7.370;2023-02-28T11:03:57;7.80;50.20
22379;DHT22;11357;49.990;7.370;2023-02-28T11:06:27;8.20;50.10
22379;DHT22;11357;49.990;7.370;2023-02-28T11:09:18;8.60;49.80
22379;DHT22;11357;49.990;7.370;2023-02-28T11:11:46;8.90;49.30
22379;DHT22;11357;49.990;7.370;2023-02-28T11:14:25;9.00;48.30
22379;DHT22;11357;49.990;7.370;2023-02-28T11:16:51;9.00;48.60
22379;DHT22;11357;49.990;7.370;2023-02-28T11:19:25;9.20;47.90
22379;DHT22;11357;49.990;7.370;2023-02-28T11:22:00;9.40;47.20
22379;DHT22;11357;49.990;7.370;2023-02-28T11:24:40;9.40;46.20
22379;DHT22;11357;49.990;7.370;2023-02-28T11:29:56;9.40;46.50
22379;DHT22;11357;49.990;7.370;2023-02-28T11:32:24;9.50;46.70
22379;DHT22;11357;49.990;7.370;2023-02-28T11:35:14;9.20;45.80
22379;DHT22;11357;49.990;7.370;2023-02-28T11:37:43;8.60;46.70
22379;DHT22;11357;49.990;7.370;2023-02-28T11:40:19;8.80;47.60
22379;DHT22;11357;49.990;7.370;2023-02-28T11:48:46;10.00;46.20
22379;DHT22;11357;49.990;7.370;2023-02-28T11:51:23;10.20;46.10
22379;DHT22;11357;49.990;7.370;2023-02-28T11:56:37;10.40;45.50
22379;DHT22;11357;49.990;7.370;2023-02-28T12:04:48;11.10;44.70
22379;DHT22;11357;49.990;7.370;2023-02-28T12:07:31;11.10;43.40
22379;DHT22;11357;49.990;7.370;2023-02-28T12:15:51;11.20;42.70
22379;DHT22;11357;49.990;7.370;2023-02-28T12:23:23;11.50;42.80
22379;DHT22;11357;49.990;7.370;2023-02-28T12:26:12;11.50;42.70
22379;DHT22;11357;49.990;7.370;2023-02-28T12:28:54;11.20;41.80
22379;DHT22;11357;49.990;7.370;2023-02-28T12:31:24;11.10;41.60
22379;DHT22;11357;49.990;7.370;2023-02-28T12:33:56;10.80;41.90
22379;DHT22;11357;49.990;7.370;2023-02-28T12:36:24;10.60;42.00
22379;DHT22;11357;49.990;7.370;2023-02-28T12:38:53;10.50;42.20
22379;DHT22;11357;49.990;7.370;2023-02-28T12:41:45;10.60;42.50
22379;DHT22;11357;49.990;7.370;2023-02-28T12:44:16;10.90;42.60
22379;DHT22;11357;49.990;7.370;2023-02-28T12:46:47;11.10;42.20
22379;DHT22;11357;49.990;7.370;2023-02-28T12:49:32;11.20;42.10
22379;DHT22;11357;49.990;7.370;2023-02-28T12:51:59;11.40;42.20
22379;DHT22;11357;49.990;7.370;2023-02-28T12:54:50;11.60;42.00
22379;DHT22;11357;49.990;7.370;2023-02-28T12:58:19;11.80;42.40
22379;DHT22;11357;49.990;7.370;2023-02-28T13:00:14;11.90;41.40
22379;DHT22;11357;49.990;7.370;2023-02-28T13:10:46;11.50;41.30
22379;DHT22;11357;49.990;7.370;2023-02-28T13:13:18;11.50;41.10
22379;DHT22;11357;49.990;7.370;2023-02-28T13:16:09;11.40;41.50
22379;DHT22;11357;49.990;7.370;2023-02-28T13:18:45;11.30;41.60
22379;DHT22;11357;49.990;7.370;2023-02-28T13:21:29;11.30;41.60
22379;DHT22;11357;49.990;7.370;2023-02-28T13:29:20;11.30;41.20
22379;DHT22;11357;49.990;7.370;2023-02-28T13:40:31;10.60;42.00
22379;DHT22;11357;49.990;7.370;2023-02-28T13:43:02;10.30;42.60
22379;DHT22;11357;49.990;7.370;2023-02-28T13:45:29;10.30;42.80
22379;DHT22;11357;49.990;7.370;2023-02-28T13:48:15;10.40;43.10
22379;DHT22;11357;49.990;7.370;2023-02-28T13:50:34;10.50;42.90
22379;DHT22;11357;49.990;7.370;2023-02-28T13:56:00;10.40;42.80
22379;DHT22;11357;49.990;7.370;2023-02-28T14:04:14;10.50;42.00
22379;DHT22;11357;49.990;7.370;2023-02-28T14:06:49;10.20;42.30
22379;DHT22;11357;49.990;7.370;2023-02-28T14:11:51;10.00;43.10
22379;DHT22;11357;49.990;7.370;2023-02-28T14:17:05;10.10;43.40
22379;DHT22;11357;49.990;7.370;2023-02-28T14:19:34;10.10;43.00
22379;DHT22;11357;49.990;7.370;2023-02-28T14:32:25;9.80;43.60
22379;DHT22;11357;49.990;7.370;2023-02-28T14:35:22;9.60;43.80
22379;DHT22;11357;49.990;7.370;2023-02-28T14:37:45;9.50;44.10
22379;DHT22;11357;49.990;7.370;2023-02-28T14:40:39;9.50;44.10
22379;DHT22;11357;49.990;7.370;2023-02-28T14:43:17;9.60;44.60
22379;DHT22;11357;49.990;7.370;2023-02-28T14:45:56;9.60;44.20
22379;DHT22;11357;49.990;7.370;2023-02-28T14:48:23;9.60;44.20
22379;DHT22;11357;49.990;7.370;2023-02-28T14:50:56;9.70;44.30
22379;DHT22;11357;49.990;7.370;2023-02-28T14:53:24;9.50;43.90
22379;DHT22;11357;49.990;7.370;2023-02-28T14:55:50;9.40;44.00
22379;DHT22;11357;49.990;7.370;2023-02-28T14:58:32;9.40;44.50
22379;DHT22;11357;49.990;7.370;2023-02-28T15:01:01;9.40;44.70
22379;DHT22;11357;49.990;7.370;2023-02-28T15:06:02;9.60;44.50
22379;DHT22;11357;49.990;7.370;2023-02-28T15:08:29;9.60;44.50
22379;DHT22;11357;49.990;7.370;2023-02-28T15:11:05;9.60;44.40
22379;DHT22;11357;49.990;7.370;2023-02-28T15:16:41;9.20;45.00
22379;DHT22;11357;49.990;7.370;2023-02-28T15:19:08;9.10;45.10
22379;DHT22;11357;49.990;7.370;2023-02-28T15:21:43;9.00;45.40
22379;DHT22;11357;49.990;7.370;2023-02-28T15:24:36;8.90;45.40
22379;DHT22;11357;49.990;7.370;2023-02-28T15:27:05;8.80;45.40
22379;DHT22;11357;49.990;7.370;2023-02-28T15:29:42;8.70;45.50
22379;DHT22;11357;49.990;7.370;2023-02-28T15:32:29;8.50;45.60
22379;DHT22;11357;49.990;7.370;2023-02-28T15:34:56;8.20;45.90
22379;DHT22;11357;49.990;7.370;2023-02-28T15:40:28;8.00;46.30
22379;DHT22;11357;49.990;7.370;2023-02-28T15:43:17;8.00;46.70
22379;DHT22;11357;49.990;7.370;2023-02-28T15:45:48;7.80;46.80
22379;DHT22;11357;49.990;7.370;2023-02-28T15:48:33;7.70;46.90
22379;DHT22;11357;49.990;7.370;2023-02-28T15:51:20;7.60;47.00
22379;DHT22;11357;49.990;7.370;2023-02-28T15:53:50;7.50;47.20
22379;DHT22;11357;49.990;7.370;2023-02-28T15:58:48;7.50;47.60
22379;DHT22;11357;49.990;7.370;2023-02-28T16:01:27;7.60;47.70
22379;DHT22;11357;49.990;7.370;2023-02-28T16:03:59;7.60;48.00
22379;DHT22;11357;49.990;7.370;2023-02-28T16:06:40;7.50;48.00
22379;DHT22;11357;49.990;7.370;2023-02-28T16:09:12;7.30;48.30
22379;DHT22;11357;49.990;7.370;2023-02-28T16:11:42;7.30;48.50
22379;DHT22;11357;49.990;7.370;2023-02-28T16:14:29;7.20;48.60
22379;DHT22;11357;49.990;7.370;2023-02-28T16:17:07;7.10;48.70
22379;DHT22;11357;49.990;7.370;2023-02-28T16:19:36;6.90;48.80
22379;DHT22;11357;49.990;7.370;2023-02-28T16:22:02;6.80;49.10
22379;DHT22;11357;49.990;7.370;2023-02-28T16:24:27;6.80;49.40
22379;DHT22;11357;49.990;7.370;2023-02-28T16:26:54;6.70;49.60
22379;DHT22;11357;49.990;7.370;2023-02-28T16:29:29;6.70;49.80
22379;DHT22;11357;49.990;7.370;2023-02-28T16:31:57;6.70;50.00
22379;DHT22;11357;49.990;7.370;2023-02-28T16:34:23;6.70;50.10
22379;DHT22;11357;49.990;7.370;2023-02-28T16:36:49;6.60;50.40
22379;DHT22;11357;49.990;7.370;2023-02-28T16:39:15;6.50;50.60
22379;DHT22;11357;49.990;7.370;2023-02-28T16:41:45;6.50;51.00
22379;DHT22;11357;49.990;7.370;2023-02-28T16:44:35;6.40;51.40
22379;DHT22;11357;49.990;7.370;2023-02-28T16:47:03;6.30;51.60
22379;DHT22;11357;49.990;7.370;2023-02-28T16:49:29;6.20;51.80
22379;DHT22;11357;49.990;7.370;2023-02-28T16:51:55;6.20;52.00
22379;DHT22;11357;49.990;7.370;2023-02-28T16:54:20;6.20;52.30
22379;DHT22;11357;49.990;7.370;2023-02-28T16:56:47;6.10;52.50
22379;DHT22;11357;49.990;7.370;2023-02-28T16:59:17;6.00;52.60
22379;DHT22;11357;49.990;7.370;2023-02-28T17:01:43;6.00;52.80
22379;DHT22;11357;49.990;7.370;2023-02-28T17:04:10;5.90;52.90
22379;DHT22;11357;49.990;7.370;2023-02-28T17:06:36;5.80;53.10
22379;DHT22;11357;49.990;7.370;2023-02-28T17:09:02;5.70;53.30
22379;DHT22;11357;49.990;7.370;2023-02-28T17:11:28;5.70;53.50
22379;DHT22;11357;49.990;7.370;2023-02-28T17:13:54;5.70;53.60
22379;DHT22;11357;49.990;7.370;2023-02-28T17:16:29;5.60;53.70
22379;DHT22;11357;49.990;7.370;2023-02-28T17:19:00;5.60;53.80
22379;DHT22;11357;49.990;7.370;2023-02-28T17:21:26;5.60;53.90
22379;DHT22;11357;49.990;7.370;2023-02-28T17:23:52;5.50;54.00
22379;DHT22;11357;49.990;7.370;2023-02-28T17:26:20;5.40;54.10
22379;DHT22;11357;49.990;7.370;2023-02-28T17:28:48;5.40;54.30
22379;DHT22;11357;49.990;7.370;2023-02-28T17:31:14;5.40;54.40
22379;DHT22;11357;49.990;7.370;2023-02-28T17:33:40;5.40;54.50
22379;DHT22;11357;49.990;7.370;2023-02-28T17:36:06;5.30;54.50
22379;DHT22;11357;49.990;7.370;2023-02-28T17:38:32;5.30;54.70
22379;DHT22;11357;49.990;7.370;2023-02-28T17:40:58;5.30;54.90
22379;DHT22;11357;49.990;7.370;2023-02-28T17:43:25;5.20;54.90
22379;DHT22;11357;49.990;7.370;2023-02-28T17:45:50;5.20;55.00
22379;DHT22;11357;49.990;7.370;2023-02-28T17:48:16;5.10;55.10
22379;DHT22;11357;49.990;7.370;2023-02-28T17:50:42;5.10;55.30
22379;DHT22;11357;49.990;7.370;2023-02-28T17:53:08;5.00;55.40
22379;DHT22;11357;49.990;7.370;2023-02-28T17:55:35;5.00;55.60
22379;DHT22;11357;49.990;7.370;2023-02-28T17:58:02;5.00;55.70
22379;DHT22;11357;49.990;7.370;2023-02-28T18:00:29;4.90;55.70
22379;DHT22;11357;49.990;7.370;2023-02-28T18:02:55;4.90;55.80
22379;DHT22;11357;49.990;7.370;2023-02-28T18:05:21;4.90;55.90
22379;DHT22;11357;49.990;7.370;2023-02-28T18:07:46;4.90;56.10
22379;DHT22;11357;49.990;7.370;2023-02-28T18:10:18;4.80;56.10
22379;DHT22;11357;49.990;7.370;2023-02-28T18:12:48;4.80;56.20
22379;DHT22;11357;49.990;7.370;2023-02-28T18:15:15;4.80;56.20
22379;DHT22;11357;49.990;7.370;2023-02-28T18:17:42;4.80;56.30
22379;DHT22;11357;49.990;7.370;2023-02-28T18:20:10;4.80;56.20
22379;DHT22;11357;49.990;7.370;2023-02-28T18:22:37;4.80;56.30